Time;durP1;ratioP1;P1;durP2;ratioP2;P2;SDS_P1;SDS_P2;PMS_P1;PMS_P2;Temp;Humidity;BMP_temperature;BMP_pressure;BME280_temperature;BME280_humidity;BME280_pressure;Samples;Min_cycle;Max_cycle;Signal;HPM_P1;HPM_P2
2022/01/04 00:01:10;;;;;;;10.20;4.45;;;;;;;8.72;100.00;98639.19;8369538;28;20112;-81
2022/01/04 00:05:12;;;;;;;7.55;4.28;;;;;;;8.72;100.00;98635.63;8380605;28;20068;-82
2022/01/04 00:09:14;;;;;;;9.53;4.50;;;;;;;8.71;100.00;98634.78;8380404;28;20573;-83
2022/01/04 00:13:23;;;;;;;13.32;4.97;;;;;;;8.75;100.00;98621.38;8368101;28;20111;-83
2022/01/04 00:17:25;;;;;;;11.43;4.95;;;;;;;8.74;100.00;98616.94;8363431;28;20655;-82
2022/01/04 00:21:26;;;;;;;11.60;6.00;;;;;;;8.71;100.00;98607.31;8366957;28;20073;-82
2022/01/04 00:25:28;;;;;;;11.35;5.07;;;;;;;8.69;100.00;98586.72;8380925;28;20423;-81
2022/01/04 00:29:30;;;;;;;10.00;6.28;;;;;;;8.69;100.00;98579.31;8365347;28;20068;-83
2022/01/04 00:33:32;;;;;;;13.77;6.70;;;;;;;8.73;100.00;98580.41;8357714;28;20041;-85
2022/01/04 00:37:34;;;;;;;11.45;6.65;;;;;;;8.79;100.00;98549.13;8376274;28;20041;-82
2022/01/04 00:41:41;;;;;;;11.00;5.72;;;;;;;8.74;100.00;98553.78;8333678;28;20708;-81
2022/01/04 00:45:42;;;;;;;14.93;7.50;;;;;;;8.76;100.00;98538.69;8380017;28;20044;-82
2022/01/04 00:49:44;;;;;;;12.30;7.03;;;;;;;8.81;100.00;98544.22;8359837;28;20058;-81
2022/01/04 00:53:46;;;;;;;13.32;6.93;;;;;;;8.76;100.00;98527.69;8366161;28;20041;-82
2022/01/04 00:57:47;;;;;;;12.32;6.50;;;;;;;8.83;100.00;98521.94;8364945;28;20139;-81
2022/01/04 01:01:49;;;;;;;11.82;5.95;;;;;;;8.87;100.00;98520.34;8380735;28;20116;-81
2022/01/04 01:05:50;;;;;;;9.25;5.10;;;;;;;8.88;100.00;98505.50;8362147;28;20083;-80
2022/01/04 01:10:14;;;;;;;9.00;5.18;;;;;;;8.93;100.00;98496.44;8370750;28;20045;-81
2022/01/04 01:14:16;;;;;;;10.68;5.13;;;;;;;8.91;100.00;98480.22;8376764;28;20072;-80
2022/01/04 01:18:18;;;;;;;10.90;5.28;;;;;;;8.93;100.00;98472.53;8371175;28;20086;-81
2022/01/04 01:22:19;;;;;;;6.97;4.33;;;;;;;8.99;100.00;98456.91;8360540;28;20525;-82
2022/01/04 01:26:21;;;;;;;8.05;4.32;;;;;;;9.07;100.00;98446.19;8369926;28;20080;-83
2022/01/04 01:30:24;;;;;;;10.60;5.77;;;;;;;9.09;100.00;98437.66;8378773;28;20049;-83
2022/01/04 01:34:26;;;;;;;7.20;4.28;;;;;;;9.09;100.00;98429.41;8354645;28;20080;-82
2022/01/04 01:38:28;;;;;;;9.95;4.97;;;;;;;9.11;100.00;98425.31;8376877;28;20520;-82
2022/01/04 01:42:29;;;;;;;11.55;5.00;;;;;;;9.23;100.00;98413.22;8363881;28;20123;-82
2022/01/04 01:46:31;;;;;;;9.43;5.22;;;;;;;9.24;100.00;98409.34;8369579;28;20052;-82
2022/01/04 01:50:33;;;;;;;10.02;5.32;;;;;;;9.28;100.00;98397.56;8376089;28;20425;-81
2022/01/04 01:54:35;;;;;;;12.17;5.57;;;;;;;9.32;100.00;98392.31;8385728;28;20124;-81
2022/01/04 01:58:36;;;;;;;12.35;6.50;;;;;;;9.36;100.00;98376.91;8369389;28;20354;-82
2022/01/04 02:02:39;;;;;;;11.10;5.60;;;;;;;9.35;100.00;98370.59;8374254;28;20064;-83
2022/01/04 02:06:41;;;;;;;11.32;5.80;;;;;;;9.40;100.00;98360.69;8380093;28;20085;-83
2022/01/04 02:10:44;;;;;;;10.52;4.68;;;;;;;9.41;100.00;98345.84;8372897;28;20421;-84
2022/01/04 02:14:50;;;;;;;8.98;4.78;;;;;;;9.45;100.00;98333.19;8364338;28;20115;-84
2022/01/04 02:18:58;;;;;;;6.10;3.28;;;;;;;9.42;100.00;98320.00;8364755;28;20055;-83
2022/01/04 02:23:00;;;;;;;6.03;2.70;;;;;;;9.40;100.00;98316.69;8366973;28;20459;-83
2022/01/04 02:27:02;;;;;;;6.00;3.33;;;;;;;9.43;100.00;98299.63;8384100;28;20812;-83
2022/01/04 02:31:03;;;;;;;9.60;3.38;;;;;;;9.50;100.00;98289.19;8371176;28;20139;-83
2022/01/04 02:35:06;;;;;;;7.80;3.67;;;;;;;9.52;100.00;98287.81;8367904;28;20509;-83
2022/01/04 02:39:07;;;;;;;7.30;3.72;;;;;;;9.58;100.00;98280.38;8400340;28;20463;-84
2022/01/04 02:43:09;;;;;;;7.95;3.30;;;;;;;9.61;100.00;98277.06;8379996;28;20730;-82
2022/01/04 02:47:13;;;;;;;8.13;3.17;;;;;;;9.61;100.00;98274.31;8380812;28;20073;-82
2022/01/04 02:51:16;;;;;;;8.07;2.92;;;;;;;9.59;100.00;98268.25;8382358;28;20053;-81
2022/01/04 02:55:18;;;;;;;9.13;3.22;;;;;;;9.56;100.00;98263.31;8396326;28;20048;-82
2022/01/04 02:59:20;;;;;;;8.50;3.83;;;;;;;9.57;100.00;98253.94;8374613;28;20068;-81
2022/01/04 03:03:22;;;;;;;7.00;3.95;;;;;;;9.60;100.00;98242.38;8369785;28;20094;-83
2022/01/04 03:07:24;;;;;;;7.63;4.32;;;;;;;9.51;100.00;98247.66;8374470;28;20115;-81
2022/01/04 03:11:25;;;;;;;9.52;3.95;;;;;;;9.49;100.00;98244.38;8361128;28;20497;-81
2022/01/04 03:15:27;;;;;;;6.93;3.50;;;;;;;9.49;100.00;98238.06;8363909;28;20071;-83
2022/01/04 03:19:29;;;;;;;7.45;4.25;;;;;;;9.51;100.00;98230.31;8363698;28;20069;-84
2022/01/04 03:23:31;;;;;;;7.97;4.47;;;;;;;9.44;100.00;98230.63;8375840;28;20040;-81
2022/01/04 03:27:33;;;;;;;10.15;4.57;;;;;;;9.46;100.00;98211.94;8366308;28;20147;-80
2022/01/04 03:31:35;;;;;;;6.72;3.80;;;;;;;9.43;100.00;98200.66;8355660;28;20041;-80
2022/01/04 03:35:37;;;;;;;7.93;4.70;;;;;;;9.44;100.00;98196.81;8352546;28;20079;-81
2022/01/04 03:39:38;;;;;;;12.68;5.10;;;;;;;9.45;100.00;98182.78;8373431;28;20601;-81
2022/01/04 03:43:40;;;;;;;8.00;4.00;;;;;;;9.40;100.00;98179.22;8365640;28;20604;-81
2022/01/04 03:47:42;;;;;;;7.78;4.35;;;;;;;9.41;100.00;98173.47;8353145;28;20076;-79
2022/01/04 03:51:44;;;;;;;9.63;4.18;;;;;;;9.42;100.00;98166.84;8367275;28;20132;-81
2022/01/04 03:55:45;;;;;;;7.07;4.03;;;;;;;9.36;100.00;98160.56;8375785;28;20176;-80
2022/01/04 03:59:47;;;;;;;6.53;4.03;;;;;;;9.36;100.00;98135.81;8353884;28;20411;-81
2022/01/04 04:03:48;;;;;;;8.30;4.10;;;;;;;9.34;100.00;98137.22;8380507;28;20155;-81
2022/01/04 04:07:50;;;;;;;7.70;4.45;;;;;;;9.42;100.00;98139.34;8370685;28;20116;-80
2022/01/04 04:11:52;;;;;;;7.10;4.43;;;;;;;9.41;100.00;98114.91;8354422;28;20060;-80
2022/01/04 04:15:53;;;;;;;8.77;4.45;;;;;;;9.36;100.00;98111.06;8359061;28;20069;-82
2022/01/04 04:19:55;;;;;;;7.05;4.05;;;;;;;9.33;100.00;98105.31;8362902;28;20420;-83
2022/01/04 04:23:56;;;;;;;9.95;4.20;;;;;;;9.32;100.00;98103.69;8366222;28;20108;-82
2022/01/04 04:27:58;;;;;;;11.13;4.95;;;;;;;9.33;100.00;98091.59;8386349;28;20056;-80
2022/01/04 04:32:00;;;;;;;6.00;4.10;;;;;;;9.38;100.00;98085.25;8368929;28;20133;-80
2022/01/04 04:36:01;;;;;;;7.53;4.18;;;;;;;9.38;100.00;98094.31;8359252;28;20071;-79
2022/01/04 04:40:04;;;;;;;8.73;4.40;;;;;;;9.32;100.00;98076.22;8375940;28;20068;-79
2022/01/04 04:44:05;;;;;;;6.32;3.88;;;;;;;9.28;100.00;98072.38;8358521;28;20048;-80
2022/01/04 04:48:07;;;;;;;9.52;4.07;;;;;;;9.31;100.00;98061.66;8383552;28;20068;-81
2022/01/04 04:52:09;;;;;;;8.35;4.70;;;;;;;9.34;100.00;98052.00;8376904;28;20414;-79
2022/01/04 04:56:10;;;;;;;6.68;4.15;;;;;;;9.32;100.00;98048.72;8362618;28;20468;-79
2022/01/04 05:00:12;;;;;;;12.98;5.78;;;;;;;9.30;100.00;98037.19;8358670;28;20074;-81
2022/01/04 05:04:14;;;;;;;7.67;4.73;;;;;;;9.28;100.00;98018.25;8356768;28;20041;-79
2022/01/04 05:08:18;;;;;;;8.13;4.82;;;;;;;9.30;100.00;98020.69;8366737;28;20049;-80
2022/01/04 05:12:20;;;;;;;9.98;4.93;;;;;;;9.35;100.00;98017.91;8359115;28;20064;-79
2022/01/04 05:16:22;;;;;;;8.52;4.28;;;;;;;9.33;100.00;98014.63;8352460;28;20068;-81
2022/01/04 05:20:23;;;;;;;7.73;4.40;;;;;;;9.38;100.00;98009.09;8357131;28;20053;-79
2022/01/04 05:24:25;;;;;;;9.55;4.55;;;;;;;9.36;100.00;98006.63;8355744;28;20057;-79
2022/01/04 05:28:26;;;;;;;9.05;4.85;;;;;;;9.37;100.00;97993.72;8365941;28;20076;-80
2022/01/04 05:32:28;;;;;;;7.68;4.82;;;;;;;9.36;100.00;97981.06;8360728;28;20123;-79
2022/01/04 05:36:29;;;;;;;8.52;4.68;;;;;;;9.36;100.00;97981.06;8358614;28;20485;-79
2022/01/04 05:40:31;;;;;;;8.20;4.55;;;;;;;9.31;100.00;97967.34;8375059;28;20535;-80
2022/01/04 05:44:32;;;;;;;8.23;4.35;;;;;;;9.29;100.00;97964.09;8361058;28;20159;-81
2022/01/04 05:48:34;;;;;;;8.18;4.20;;;;;;;9.26;100.00;97957.22;8368439;28;20071;-79
2022/01/04 05:52:35;;;;;;;8.55;4.57;;;;;;;9.27;100.00;97945.13;8354099;28;20120;-83
2022/01/04 05:56:37;;;;;;;7.13;4.05;;;;;;;9.28;100.00;97945.94;8362217;28;20120;-81
2022/01/04 06:00:39;;;;;;;8.50;4.57;;;;;;;9.29;100.00;97931.09;8353495;28;20143;-80
2022/01/04 06:04:40;;;;;;;7.68;4.72;;;;;;;9.28;100.00;97929.44;8361368;28;20406;-80
2022/01/04 06:08:42;;;;;;;8.07;4.63;;;;;;;9.22;100.00;97928.69;8354932;28;20104;-79
2022/01/04 06:16:45;;;;;;;9.35;4.57;;;;;;;9.25;100.00;97919.03;8357873;28;20477;-81
2022/01/04 06:20:49;;;;;;;10.05;5.15;;;;;;;9.27;100.00;97911.31;8361394;28;20041;-79
2022/01/04 06:24:51;;;;;;;9.40;5.05;;;;;;;9.25;100.00;97902.53;8374290;28;20048;-79
2022/01/04 06:28:53;;;;;;;8.70;4.97;;;;;;;9.19;100.00;97904.53;8351585;28;20063;-80
2022/01/04 06:32:54;;;;;;;8.60;4.70;;;;;;;9.23;100.00;97900.09;8360307;28;20366;-79
2022/01/04 06:36:56;;;;;;;8.65;5.05;;;;;;;9.27;100.00;97897.56;8366739;28;20927;-79
2022/01/04 06:40:58;;;;;;;8.77;4.50;;;;;;;9.25;100.00;97886.03;8365684;28;20554;-79
2022/01/04 06:44:59;;;;;;;8.52;4.53;;;;;;;9.27;100.00;97881.09;8363327;28;20140;-80
2022/01/04 06:49:01;;;;;;;7.50;4.22;;;;;;;9.25;100.00;97880.56;8371852;28;20049;-78
2022/01/04 06:53:03;;;;;;;9.82;5.30;;;;;;;9.20;100.00;97872.38;8366270;28;20139;-78
2022/01/04 06:57:05;;;;;;;10.70;5.57;;;;;;;9.22;100.00;97862.72;8391414;28;20444;-78
2022/01/04 07:01:07;;;;;;;9.60;4.78;;;;;;;9.33;100.00;97868.94;8377824;28;20120;-80
2022/01/04 07:05:09;;;;;;;9.68;5.25;;;;;;;9.32;100.00;97876.38;8359532;28;20059;-78
2022/01/04 07:09:11;;;;;;;11.05;5.43;;;;;;;9.33;100.00;97861.50;8359922;28;20068;-79
2022/01/04 07:13:12;;;;;;;9.82;5.53;;;;;;;9.35;100.00;97848.31;8355344;28;20123;-79
2022/01/04 07:17:17;;;;;;;11.20;6.13;;;;;;;9.38;100.00;97849.66;8349027;28;20053;-78
2022/01/04 07:21:20;;;;;;;14.55;6.65;;;;;;;9.45;100.00;97849.31;8348016;28;20071;-78
2022/01/04 07:25:22;;;;;;;11.05;6.53;;;;;;;9.48;100.00;97854.22;8364083;28;20045;-78
2022/01/04 07:29:23;;;;;;;12.25;6.63;;;;;;;9.45;100.00;97849.31;8352360;28;20165;-78
2022/01/04 07:33:25;;;;;;;10.73;6.57;;;;;;;9.48;100.00;97838.53;8351643;28;20077;-78
2022/01/04 07:37:26;;;;;;;14.18;6.55;;;;;;;9.47;100.00;97831.41;8356137;28;20069;-77
2022/01/04 07:41:29;;;;;;;8.38;5.13;;;;;;;9.41;100.00;97824.34;8370945;28;20045;-79
2022/01/04 07:45:32;;;;;;;8.25;4.68;;;;;;;9.42;100.00;97811.41;8373770;28;20577;-79
2022/01/04 07:49:34;;;;;;;12.38;5.07;;;;;;;9.44;100.00;97818.25;8361723;28;20130;-79
2022/01/04 07:53:36;;;;;;;11.80;5.25;;;;;;;9.42;100.00;97803.97;8371118;28;20036;-79
2022/01/04 07:57:40;;;;;;;8.52;4.00;;;;;;;9.42;100.00;97801.22;8367417;28;20136;-79
2022/01/04 08:01:41;;;;;;;5.60;3.40;;;;;;;9.47;100.00;97792.13;8357987;28;20077;-79
2022/01/04 08:05:44;;;;;;;7.38;2.95;;;;;;;9.48;100.00;97785.50;8361923;28;20086;-81
2022/01/04 08:09:45;;;;;;;5.07;2.80;;;;;;;9.55;100.00;97785.97;8359139;28;20057;-80
2022/01/04 08:13:47;;;;;;;6.55;3.78;;;;;;;9.59;100.00;97782.34;8357612;28;20044;-78
2022/01/04 08:17:49;;;;;;;9.40;3.67;;;;;;;9.64;100.00;97766.88;8356336;28;20053;-81
2022/01/04 08:21:50;;;;;;;6.43;3.60;;;;;;;9.65;100.00;97766.59;8359350;28;20120;-80
2022/01/04 08:25:52;;;;;;;4.95;2.85;;;;;;;9.71;100.00;97751.69;8374257;28;20520;-79
2022/01/04 08:29:54;;;;;;;7.65;3.40;;;;;;;9.72;100.00;97758.81;8368518;28;20167;-80
2022/01/04 08:33:56;;;;;;;9.20;3.80;;;;;;;9.78;100.00;97757.63;8349741;28;20410;-80
2022/01/04 08:37:57;;;;;;;5.88;3.50;;;;;;;9.77;100.00;97753.25;8357503;28;20040;-79
2022/01/04 08:42:02;;;;;;;6.85;4.28;;;;;;;9.81;100.00;97745.22;8346389;28;20514;-78
2022/01/04 08:46:04;;;;;;;8.63;4.00;;;;;;;9.82;100.00;97749.63;8368564;28;20060;-78
2022/01/04 08:50:09;;;;;;;7.32;4.30;;;;;;;9.86;100.00;97752.59;8356793;28;20120;-78
2022/01/04 08:54:11;;;;;;;8.05;4.72;;;;;;;9.92;100.00;97752.22;8374581;28;20112;-79
2022/01/04 08:58:13;;;;;;;7.70;3.60;;;;;;;9.84;100.00;97755.63;8371789;28;20103;-77
2022/01/04 09:02:15;;;;;;;7.17;4.00;;;;;;;9.65;100.00;97749.28;8348208;28;20052;-78
2022/01/04 09:06:19;;;;;;;11.07;5.13;;;;;;;9.50;100.00;97750.28;8350051;28;20524;-78
2022/01/04 09:10:21;;;;;;;11.95;5.93;;;;;;;9.31;100.00;97741.97;8348999;28;20045;-77
2022/01/04 09:14:26;;;;;;;13.15;6.15;;;;;;;9.04;100.00;97742.53;8351628;28;20120;-78
2022/01/04 09:18:43;;;;;;;12.55;4.55;;;;;;;8.62;100.00;97736.59;8360804;28;20056;-78
2022/01/04 09:22:56;;;;;;;4.63;2.53;;;;;;;8.17;100.00;97737.75;8371173;28;20095;-78
2022/01/04 09:26:58;;;;;;;5.57;2.72;;;;;;;7.98;100.00;97743.91;8372516;28;20060;-79
2022/01/04 09:31:00;;;;;;;6.63;2.60;;;;;;;7.87;100.00;97744.25;8349928;28;20037;-78
2022/01/04 09:35:03;;;;;;;2.30;1.35;;;;;;;7.84;100.00;97747.56;8357480;28;20033;-78
2022/01/04 09:39:10;;;;;;;2.35;1.15;;;;;;;7.66;100.00;97749.84;8354659;28;20607;-79
2022/01/04 09:43:12;;;;;;;2.63;0.80;;;;;;;7.57;100.00;97753.44;8352023;28;20069;-77
2022/01/04 09:47:14;;;;;;;1.10;0.60;;;;;;;7.37;100.00;97755.16;8345636;28;20121;-78
2022/01/04 09:51:17;;;;;;;0.57;0.30;;;;;;;7.21;100.00;97761.78;8356334;28;20037;-79
2022/01/04 09:55:19;;;;;;;2.47;0.57;;;;;;;7.10;100.00;97760.16;8341447;28;20038;-79
2022/01/04 09:59:20;;;;;;;1.15;0.60;;;;;;;7.11;100.00;97761.81;8336668;28;20128;-79
2022/01/04 10:03:28;;;;;;;1.85;0.68;;;;;;;7.03;100.00;97760.47;8355944;28;20368;-80
2022/01/04 10:07:29;;;;;;;4.60;0.80;;;;;;;7.01;100.00;97752.50;8351939;28;20052;-79
2022/01/04 10:11:39;;;;;;;4.13;0.90;;;;;;;7.10;100.00;97762.91;8357575;28;20415;-79
2022/01/04 10:15:44;;;;;;;3.83;1.05;;;;;;;7.16;100.00;97775.50;8361050;28;20041;-78
2022/01/04 10:19:48;;;;;;;1.83;0.90;;;;;;;7.14;100.00;97764.84;8361504;28;20063;-78
2022/01/04 10:23:54;;;;;;;3.22;1.10;;;;;;;7.16;100.00;97781.78;8389790;28;20045;-78
2022/01/04 10:27:55;;;;;;;4.18;1.50;;;;;;;7.12;100.00;97788.94;8374212;28;20141;-77
2022/01/04 10:32:08;;;;;;;5.75;2.58;;;;;;;7.13;100.00;97781.53;8359316;28;20124;-78
2022/01/04 10:36:11;;;;;;;2.60;1.45;;;;;;;7.19;100.00;97810.56;8355181;28;20059;-78
2022/01/04 10:40:13;;;;;;;4.25;1.52;;;;;;;7.10;100.00;97798.50;8360283;28;20037;-78
2022/01/04 10:44:15;;;;;;;2.30;1.27;;;;;;;7.12;100.00;97804.56;8360939;28;20128;-78
2022/01/04 10:48:21;;;;;;;1.73;1.00;;;;;;;7.13;100.00;97803.44;8362024;28;20413;-77
2022/01/04 10:52:31;;;;;;;2.00;1.10;;;;;;;7.18;100.00;97812.47;8361392;28;20044;-78
2022/01/04 10:56:37;;;;;;;2.42;1.35;;;;;;;7.21;100.00;97828.34;8360143;28;20063;-78
2022/01/04 11:00:39;;;;;;;1.70;0.90;;;;;;;7.14;100.00;97833.31;8360172;28;20049;-78
2022/01/04 11:04:43;;;;;;;2.28;1.08;;;;;;;7.13;100.00;97839.88;8376555;28;20603;-78
2022/01/04 11:08:45;;;;;;;3.25;1.70;;;;;;;7.02;100.00;97830.00;8374077;28;20072;-80
2022/01/04 11:12:48;;;;;;;2.03;1.17;;;;;;;6.92;100.00;97849.19;8339285;28;20072;-78
2022/01/04 11:16:49;;;;;;;;;;;;;;;6.95;100.00;97851.38;8365017;28;20114;-78
2022/01/04 11:20:51;;;;;;;2.17;1.20;;;;;;;6.95;100.00;97856.84;8358922;28;19921;-78
2022/01/04 11:24:53;;;;;;;2.40;1.17;;;;;;;6.96;100.00;97855.75;8358886;28;20061;-78
2022/01/04 11:28:55;;;;;;;8.98;3.72;;;;;;;7.00;100.00;97859.59;8358363;28;20143;-77
2022/01/04 11:33:03;;;;;;;2.17;1.27;;;;;;;7.09;100.00;97857.94;8356729;28;20115;-77
2022/01/04 11:37:05;;;;;;;1.88;1.05;;;;;;;7.13;100.00;97871.91;8363214;28;20140;-77
2022/01/04 11:41:07;;;;;;;2.63;1.05;;;;;;;7.08;100.00;97878.22;8360259;28;20083;-77
2022/01/04 11:45:11;;;;;;;5.35;2.30;;;;;;;6.98;100.00;97883.69;8354242;28;20049;-77
2022/01/04 11:49:13;;;;;;;3.55;1.10;;;;;;;6.89;100.00;97885.34;8373430;28;20140;-78
2022/01/04 11:53:15;;;;;;;3.22;0.82;;;;;;;6.83;100.00;97895.44;8358033;28;20072;-78
2022/01/04 11:57:17;;;;;;;2.17;0.55;;;;;;;6.67;100.00;97899.28;8358045;28;20053;-77
2022/01/04 12:01:27;;;;;;;1.27;0.60;;;;;;;6.59;100.00;97903.34;8355792;28;20120;-77
2022/01/04 12:05:29;;;;;;;3.58;0.80;;;;;;;6.47;100.00;97902.78;8356360;28;20628;-78
2022/01/04 12:09:31;;;;;;;1.73;0.77;;;;;;;6.47;100.00;97908.25;8354027;28;20148;-77
2022/01/04 12:13:50;;;;;;;3.38;0.55;;;;;;;6.39;100.00;97901.38;8356662;28;20564;-78
2022/01/04 12:17:52;;;;;;;1.88;0.50;;;;;;;6.36;100.00;97918.34;8356758;28;20053;-77
2022/01/04 12:22:04;;;;;;;1.95;0.40;;;;;;;6.29;100.00;97931.47;8361552;28;20048;-76
2022/01/04 12:26:12;;;;;;;1.55;0.60;;;;;;;6.25;100.00;97939.38;8359082;28;20449;-77
2022/01/04 12:30:28;;;;;;;2.83;0.70;;;;;;;6.23;100.00;97938.00;8353967;28;20120;-77
2022/01/04 12:34:31;;;;;;;1.48;0.55;;;;;;;6.19;100.00;97948.66;8357041;28;20506;-76
2022/01/04 12:38:34;;;;;;;2.90;0.55;;;;;;;6.24;100.00;97956.03;8360949;28;20429;-77
2022/01/04 12:42:40;;;;;;;1.13;0.57;;;;;;;6.27;100.00;97939.91;8339967;28;20072;-77
2022/01/04 12:46:46;;;;;;;3.22;0.90;;;;;;;6.36;100.00;97951.97;8352411;28;20120;-77
2022/01/04 12:50:48;;;;;;;2.47;1.00;;;;;;;6.44;100.00;97960.78;8355883;28;20094;-76
2022/01/04 12:54:49;;;;;;;4.32;0.98;;;;;;;6.47;100.00;97963.81;8352913;28;20116;-77
2022/01/04 12:58:51;;;;;;;2.53;0.80;;;;;;;6.48;100.00;97964.63;8352887;28;20088;-77
2022/01/04 13:02:53;;;;;;;2.35;0.60;;;;;;;6.44;100.00;97966.25;8365851;28;20124;-77
2022/01/04 13:06:56;;;;;;;2.83;0.57;;;;;;;6.41;100.00;97964.06;8363179;28;20149;-77
2022/01/04 13:11:08;;;;;;;;;;;;;;;6.37;100.00;97972.81;8355951;28;20083;-77
2022/01/04 13:15:13;;;;;;;1.67;0.95;;;;;;;6.44;100.00;97977.19;8368605;28;20007;-77
2022/01/04 13:19:18;;;;;;;3.75;0.80;;;;;;;6.39;100.00;97981.56;8355636;28;20186;-77
2022/01/04 13:23:24;;;;;;;2.95;0.70;;;;;;;6.36;100.00;97979.34;8354196;28;20052;-77
2022/01/04 13:27:29;;;;;;;2.33;0.60;;;;;;;6.33;100.00;97999.03;8355734;28;20064;-77
2022/01/04 13:31:30;;;;;;;2.10;0.60;;;;;;;6.33;100.00;98001.75;8358111;28;20037;-76
2022/01/04 13:35:37;;;;;;;0.95;0.40;;;;;;;6.30;100.00;98007.75;8346742;28;20060;-76
2022/01/04 13:39:39;;;;;;;0.38;0.30;;;;;;;6.26;100.00;98012.13;8360294;28;20542;-77
2022/01/04 13:43:45;;;;;;;1.33;0.40;;;;;;;6.22;100.00;98011.03;8356142;28;20124;-78
2022/01/04 13:47:58;;;;;;;2.15;0.65;;;;;;;6.22;100.00;98012.94;8358572;28;20036;-77
2022/01/04 13:52:14;;;;;;;1.63;0.65;;;;;;;6.26;100.00;98009.41;8361851;28;20076;-77
2022/01/04 13:56:20;;;;;;;4.10;1.13;;;;;;;6.33;100.00;98015.44;8357788;28;20119;-77
2022/01/04 14:00:33;;;;;;;2.35;1.00;;;;;;;6.34;100.00;98008.09;8354203;28;20450;-77
2022/01/04 14:04:38;;;;;;;3.83;1.42;;;;;;;6.30;100.00;98026.91;8366681;28;20052;-78
2022/01/04 14:08:47;;;;;;;6.43;1.98;;;;;;;6.29;100.00;98022.53;8382306;28;20045;-77
2022/01/04 14:12:49;;;;;;;5.18;2.05;;;;;;;6.22;100.00;98034.81;8370169;28;20695;-77
2022/01/04 14:16:57;;;;;;;4.43;1.45;;;;;;;6.16;100.00;98034.78;8356001;28;20128;-77
2022/01/04 14:20:59;;;;;;;6.88;2.05;;;;;;;6.10;100.00;98048.69;8369418;28;20135;-77
2022/01/04 14:25:09;;;;;;;5.00;2.38;;;;;;;6.07;100.00;98055.53;8374785;28;20636;-77
2022/01/04 14:29:11;;;;;;;6.15;2.00;;;;;;;6.02;100.00;98063.69;8362087;28;20033;-78
2022/01/04 14:33:12;;;;;;;8.57;2.58;;;;;;;6.07;100.00;98071.94;8361653;28;20115;-77
2022/01/04 14:37:14;;;;;;;5.88;2.95;;;;;;;6.08;100.00;98078.22;8362666;28;20116;-78
2022/01/04 14:41:16;;;;;;;8.15;3.38;;;;;;;6.13;100.00;98072.78;8343848;28;20140;-77
2022/01/04 14:45:19;;;;;;;12.90;6.28;;;;;;;6.11;100.00;98067.56;8362452;28;20036;-76
2022/01/04 14:49:21;;;;;;;9.75;4.70;;;;;;;6.12;100.00;98076.59;8360486;28;20037;-77
2022/01/04 14:53:23;;;;;;;8.45;4.32;;;;;;;6.07;100.00;98085.59;8362301;28;20441;-77
2022/01/04 14:57:27;;;;;;;6.63;3.80;;;;;;;6.09;100.00;98090.78;8361191;28;20051;-77
2022/01/04 15:01:30;;;;;;;5.50;2.72;;;;;;;6.14;100.00;98099.03;8358700;28;20037;-78
2022/01/04 15:05:32;;;;;;;5.43;2.53;;;;;;;6.11;100.00;98099.56;8354483;28;20446;-77
2022/01/04 15:09:34;;;;;;;7.03;3.45;;;;;;;6.10;100.00;98092.47;8356776;28;20047;-77
2022/01/04 15:13:36;;;;;;;11.82;4.60;;;;;;;6.08;100.00;98097.34;8352873;28;20040;-77
2022/01/04 15:17:58;;;;;;;8.55;4.28;;;;;;;5.99;100.00;98091.53;8357869;28;20047;-77
2022/01/04 15:21:59;;;;;;;7.43;4.22;;;;;;;5.96;100.00;98107.66;8361758;28;20115;-78
2022/01/04 15:26:01;;;;;;;7.93;4.85;;;;;;;6.00;100.00;98106.84;8355339;28;20541;-77
2022/01/04 15:30:04;;;;;;;9.23;4.82;;;;;;;5.99;100.00;98102.47;8355923;28;20458;-78
2022/01/04 15:34:06;;;;;;;10.30;4.45;;;;;;;5.94;100.00;98092.31;8349626;28;20437;-78
2022/01/04 15:38:08;;;;;;;10.10;4.68;;;;;;;5.93;100.00;98096.16;8368550;28;20523;-78
2022/01/04 15:42:10;;;;;;;11.68;5.63;;;;;;;5.90;100.00;98088.44;8351004;28;20508;-79
2022/01/04 15:46:11;;;;;;;11.40;5.53;;;;;;;5.91;100.00;98092.00;8360328;28;20072;-79
2022/01/04 15:50:13;;;;;;;9.85;4.43;;;;;;;5.94;100.00;98094.22;8358528;28;20115;-78
2022/01/04 15:54:15;;;;;;;8.43;4.68;;;;;;;5.89;100.00;98091.44;8360044;28;20069;-79
2022/01/04 15:58:17;;;;;;;9.48;4.80;;;;;;;5.87;100.00;98099.06;8357869;28;20060;-79
2022/01/04 16:02:22;;;;;;;12.20;5.90;;;;;;;5.86;100.00;98113.81;8356300;28;20080;-80
2022/01/04 16:06:23;;;;;;;10.00;5.22;;;;;;;5.84;100.00;98132.41;8354301;28;20037;-79
2022/01/04 16:10:26;;;;;;;14.68;6.75;;;;;;;5.86;100.00;98131.06;8356196;28;20677;-79
2022/01/04 16:14:28;;;;;;;9.77;5.18;;;;;;;5.87;100.00;98132.69;8360650;28;20128;-80
2022/01/04 16:22:38;;;;;;;11.52;5.38;;;;;;;5.86;100.00;98147.47;8359065;28;20036;-80
2022/01/04 16:26:44;;;;;;;8.32;3.83;;;;;;;5.81;100.00;98169.28;8359916;28;20116;-80
2022/01/04 16:30:46;;;;;;;10.85;4.85;;;;;;;5.71;100.00;98163.69;8359217;28;20048;-79
2022/01/04 16:34:48;;;;;;;11.07;4.50;;;;;;;5.74;100.00;98168.69;8354078;28;20080;-80
2022/01/04 16:38:49;;;;;;;11.55;5.47;;;;;;;5.75;100.00;98166.75;8358995;28;20319;-80
2022/01/04 16:42:52;;;;;;;12.57;6.38;;;;;;;5.70;100.00;98173.81;8361544;28;20115;-80
2022/01/04 16:46:57;;;;;;;11.63;6.50;;;;;;;5.69;100.00;98182.28;8362861;28;20053;-79
2022/01/04 16:50:59;;;;;;;11.48;5.25;;;;;;;5.78;100.00;98193.56;8361361;28;20068;-81
2022/01/04 16:55:02;;;;;;;14.80;6.97;;;;;;;5.69;100.00;98176.81;8365601;28;20143;-80
2022/01/04 16:59:05;;;;;;;16.20;7.18;;;;;;;5.70;100.00;98167.53;8377540;28;20124;-79
2022/01/04 17:03:06;;;;;;;16.52;7.45;;;;;;;5.75;100.00;98167.59;8357320;28;20412;-79
2022/01/04 17:07:08;;;;;;;12.88;5.80;;;;;;;5.65;100.00;98162.84;8361404;28;20106;-79
2022/01/04 17:11:13;;;;;;;10.20;5.22;;;;;;;5.58;100.00;98167.69;8356641;28;20060;-79
2022/01/04 17:15:35;;;;;;;11.95;6.10;;;;;;;5.58;100.00;98161.38;8359762;28;20451;-78
2022/01/04 17:19:36;;;;;;;12.13;5.18;;;;;;;5.59;100.00;98154.84;8364301;28;20040;-79
2022/01/04 17:23:39;;;;;;;11.73;5.63;;;;;;;5.62;100.00;98152.44;8360529;28;20053;-79
2022/01/04 17:27:42;;;;;;;11.20;6.20;;;;;;;5.63;100.00;98143.16;8368539;28;20071;-78
2022/01/04 17:31:44;;;;;;;10.57;5.72;;;;;;;5.63;100.00;98142.31;8359318;28;20057;-78
2022/01/04 17:35:46;;;;;;;10.33;6.20;;;;;;;5.61;100.00;98141.75;8359812;28;20544;-78
2022/01/04 17:39:48;;;;;;;13.50;5.75;;;;;;;5.65;100.00;98145.59;8372769;28;20502;-78
2022/01/04 17:43:50;;;;;;;10.07;4.77;;;;;;;5.59;100.00;98146.63;8351173;28;20084;-78
2022/01/04 17:47:52;;;;;;;8.95;4.10;;;;;;;5.55;100.00;98154.53;8378129;28;20144;-79
2022/01/04 17:51:56;;;;;;;9.38;3.97;;;;;;;5.50;100.00;98154.47;8374645;28;20076;-79
2022/01/04 17:55:57;;;;;;;9.95;4.35;;;;;;;5.47;100.00;98163.19;8351598;28;20041;-79
2022/01/04 17:59:59;;;;;;;10.02;5.38;;;;;;;5.52;100.00;98159.69;8356413;28;20107;-79
2022/01/04 18:04:01;;;;;;;10.93;6.13;;;;;;;5.44;100.00;98152.78;8343886;28;20049;-78
2022/01/04 18:08:06;;;;;;;17.42;7.68;;;;;;;5.47;100.00;98150.38;8360038;28;20076;-78
2022/01/04 18:12:08;;;;;;;12.23;6.10;;;;;;;5.40;100.00;98149.72;8354069;28;20127;-78
2022/01/04 18:16:10;;;;;;;14.95;7.93;;;;;;;5.40;100.00;98149.72;8347574;28;20119;-78
2022/01/04 18:20:12;;;;;;;13.45;6.47;;;;;;;5.31;100.00;98145.81;8356158;28;20049;-79
2022/01/04 18:24:13;;;;;;;15.48;7.68;;;;;;;5.35;100.00;98146.13;8362538;28;20040;-79
2022/01/04 18:28:18;;;;;;;16.95;8.40;;;;;;;5.36;100.00;98145.06;8364552;28;20065;-80
2022/01/04 18:32:20;;;;;;;13.63;7.13;;;;;;;5.31;100.00;98136.81;8381624;28;20113;-80
2022/01/04 18:36:21;;;;;;;16.42;7.15;;;;;;;5.33;100.00;98140.94;8366637;28;20036;-81
2022/01/04 18:40:23;;;;;;;17.33;8.32;;;;;;;5.37;100.00;98141.22;8374935;28;20116;-81
2022/01/04 18:44:24;;;;;;;17.67;8.88;;;;;;;5.35;100.00;98140.66;8364445;28;20120;-81
2022/01/04 18:48:27;;;;;;;15.63;6.97;;;;;;;5.37;100.00;98130.31;8367652;28;20777;-80
2022/01/04 18:52:29;;;;;;;12.82;6.75;;;;;;;5.35;100.00;98135.19;8368256;28;20040;-82
2022/01/04 18:56:31;;;;;;;17.38;7.15;;;;;;;5.31;100.00;98126.69;8362205;28;20080;-81
2022/01/04 19:00:33;;;;;;;11.32;5.78;;;;;;;5.34;100.00;98112.53;8361449;28;20132;-80
2022/01/04 19:04:35;;;;;;;13.82;6.32;;;;;;;5.34;100.00;98123.44;8362679;28;20486;-81
2022/01/04 19:08:37;;;;;;;14.95;6.93;;;;;;;5.32;100.00;98120.13;8367154;28;20056;-82